Time;durP1;ratioP1;P1;durP2;ratioP2;P2;SDS_P1;SDS_P2;PMS_P1;PMS_P2;Temp;Humidity;BMP_temperature;BMP_pressure;BME280_temperature;BME280_humidity;BME280_pressure;Samples;Min_cycle;Max_cycle;Signal;HPM_P1;HPM_P2
2021/12/31 00:01:04;;;;;;;1.30;0.80;;;;;;;;;;20691860;28;20216;-80
2021/12/31 00:11:06;;;;;;;1.17;0.50;;;;;;;;;;20757566;28;20231;-80
2021/12/31 00:21:08;;;;;;;0.50;0.43;;;;;;;;;;20748773;28;20245;-80
2021/12/31 00:31:09;;;;;;;1.03;0.73;;;;;;;;;;20732484;28;20301;-80
2021/12/31 00:41:11;;;;;;;0.97;0.57;;;;;;;;;;20731201;28;20289;-80
2021/12/31 00:51:13;;;;;;;0.80;0.60;;;;;;;;;;20714192;28;20223;-80
2021/12/31 01:01:20;;;;;;;1.40;0.63;;;;;;;;;;20729912;28;20278;-81
2021/12/31 01:11:22;;;;;;;0.67;0.47;;;;;;;;;;20745754;28;20369;-82
2021/12/31 01:21:24;;;;;;;1.20;0.77;;;;;;;;;;20728928;28;20604;-79
2021/12/31 01:31:26;;;;;;;0.63;0.50;;;;;;;;;;20743811;28;20235;-80
2021/12/31 01:41:27;;;;;;;4.17;0.90;;;;;;;;;;20774442;28;20245;-81
2021/12/31 01:51:30;;;;;;;0.90;0.60;;;11.80;99.90;;;;;;20743403;28;20598;-81
2021/12/31 02:01:34;;;;;;;1.10;0.60;;;11.90;99.90;;;;;;20744633;28;20275;-81
2021/12/31 02:11:36;;;;;;;1.50;0.73;;;;;;;;;;20711455;28;20223;-82
2021/12/31 02:21:38;;;;;;;0.93;0.60;;;11.70;99.90;;;;;;20742437;28;20254;-80
2021/12/31 02:31:39;;;;;;;1.20;0.60;;;;;;;;;;20732294;28;20651;-80
2021/12/31 02:41:43;;;;;;;0.77;0.60;;;;;;;;;;20772993;28;20215;-78
2021/12/31 02:51:45;;;;;;;1.00;0.53;;;;;;;;;;20719262;28;20324;-79
2021/12/31 03:01:47;;;;;;;2.23;0.60;;;11.80;99.90;;;;;;20755587;28;20298;-79
2021/12/31 03:11:52;;;;;;;1.70;0.70;;;11.70;99.90;;;;;;20738394;28;20790;-79
2021/12/31 03:21:54;;;;;;;0.90;0.60;;;;;;;;;;20777194;28;20215;-80
2021/12/31 03:31:56;;;;;;;1.03;0.50;;;;;;;;;;20751525;28;20231;-80
2021/12/31 03:41:58;;;;;;;0.43;0.40;;;;;;;;;;20735613;28;20215;-80
2021/12/31 03:52:00;;;;;;;0.77;0.53;;;;;;;;;;20788094;28;20235;-82
2021/12/31 04:02:02;;;;;;;0.50;0.50;;;;;;;;;;20781697;28;20266;-80
2021/12/31 04:12:04;;;;;;;0.40;0.40;;;;;;;;;;20735098;28;20274;-79
2021/12/31 04:22:07;;;;;;;0.57;0.40;;;;;;;;;;20751474;28;20219;-81
2021/12/31 04:32:09;;;;;;;1.13;0.60;;;;;;;;;;20733289;28;20231;-81
2021/12/31 04:42:11;;;;;;;0.67;0.47;;;;;;;;;;20716529;28;20270;-81
2021/12/31 04:52:13;;;;;;;1.27;0.70;;;;;;;;;;20768486;28;20273;-81
2021/12/31 05:02:14;;;;;;;0.87;0.60;;;;;;;;;;20747934;28;20204;-81
2021/12/31 05:12:24;;;;;;;0.90;0.53;;;;;;;;;;20747462;28;20640;-81
2021/12/31 05:22:26;;;;;;;1.07;0.60;;;;;;;;;;20730414;28;20627;-81
2021/12/31 05:32:28;;;;;;;1.40;0.83;;;;;;;;;;20712307;28;20223;-81
2021/12/31 05:42:30;;;;;;;0.70;0.60;;;;;;;;;;20760845;28;20227;-80
2021/12/31 05:52:32;;;;;;;2.77;0.80;;;;;;;;;;20759119;28;20277;-80
2021/12/31 06:02:34;;;;;;;1.17;0.70;;;;;;;;;;20748799;28;20211;-80
2021/12/31 06:12:38;;;;;;;1.20;0.80;;;;;;;;;;20758807;28;20235;-80
2021/12/31 06:22:40;;;;;;;0.70;0.57;;;;;;;;;;20744113;28;20199;-80
2021/12/31 06:32:42;;;;;;;1.50;0.80;;;;;;;;;;20741224;28;20219;-83
2021/12/31 06:42:44;;;;;;;0.53;0.50;;;;;;;;;;20743447;28;20207;-82
2021/12/31 06:52:46;;;;;;;4.20;1.10;;;;;;;;;;20743253;28;20228;-81
2021/12/31 07:02:48;;;;;;;1.73;0.80;;;;;;;;;;20771165;28;20245;-81
2021/12/31 07:12:49;;;;;;;1.70;0.93;;;;;;;;;;20771585;28;20235;-81
2021/12/31 07:22:51;;;;;;;1.77;1.10;;;;;;;;;;20771847;28;20215;-82
2021/12/31 07:32:53;;;;;;;1.47;0.73;;;;;;;;;;20750547;28;20301;-82
2021/12/31 07:42:55;;;;;;;2.10;1.00;;;;;;;;;;20713847;28;20262;-80
2021/12/31 07:52:57;;;;;;;1.13;0.50;;;;;;;;;;20764495;28;20239;-81
2021/12/31 08:02:59;;;;;;;2.50;1.10;;;;;;;;;;20766190;28;20310;-79
2021/12/31 08:13:01;;;;;;;1.30;1.07;;;10.20;99.90;;;;;;20750009;28;20231;-81
2021/12/31 08:23:09;;;;;;;1.20;0.90;;;10.30;99.90;;;;;;20749973;28;20217;-81
2021/12/31 08:33:11;;;;;;;2.00;1.20;;;;;;;;;;20729634;28;20285;-81
2021/12/31 08:43:13;;;;;;;2.77;1.30;;;;;;;;;;20745294;28;20262;-80
2021/12/31 08:53:18;;;;;;;0.80;0.60;;;;;;;;;;20763090;28;20227;-81
2021/12/31 09:03:20;;;;;;;2.37;0.80;;;;;;;;;;20750521;28;20270;-82
2021/12/31 09:13:22;;;;;;;1.43;0.80;;;;;;;;;;20749925;28;20313;-81
2021/12/31 09:23:24;;;;;;;1.13;0.73;;;;;;;;;;20778146;28;20490;-81
2021/12/31 09:33:26;;;;;;;0.87;0.80;;;;;;;;;;20732871;28;20210;-80
2021/12/31 09:43:28;;;;;;;1.33;0.90;;;;;;;;;;20764778;28;20270;-81
2021/12/31 09:53:29;;;;;;;0.87;0.70;;;;;;;;;;20730766;28;20246;-80
2021/12/31 10:03:33;;;;;;;1.20;1.00;;;11.30;99.90;;;;;;20747951;28;20219;-80
2021/12/31 10:13:36;;;;;;;1.10;0.83;;;;;;;;;;20747934;28;20235;-81
2021/12/31 10:23:39;;;;;;;0.80;0.43;;;11.70;99.90;;;;;;20757650;28;20293;-81
2021/12/31 10:33:46;;;;;;;1.80;1.00;;;12.00;99.90;;;;;;20731627;28;20234;-80
2021/12/31 10:43:55;;;;;;;0.60;0.57;;;;;;;;;;20744469;28;20254;-80
2021/12/31 10:54:28;;;;;;;1.57;0.83;;;12.30;99.90;;;;;;20729597;28;20273;-80
2021/12/31 11:04:31;;;;;;;2.37;0.70;;;12.70;99.90;;;;;;20728134;28;20615;-81
2021/12/31 11:14:34;;;;;;;0.67;0.60;;;;;;;;;;20776117;28;20712;-81
2021/12/31 11:24:38;;;;;;;2.80;0.83;;;;;;;;;;20775193;28;20250;-81
2021/12/31 11:34:41;;;;;;;1.13;0.97;;;;;;;;;;20772342;28;20277;-81
2021/12/31 11:45:03;;;;;;;1.13;0.83;;;12.40;99.90;;;;;;20728555;28;20266;-81
2021/12/31 11:55:17;;;;;;;2.27;1.43;;;;;;;;;;20758575;28;20211;-80
2021/12/31 12:05:26;;;;;;;1.43;0.90;;;;;;;;;;20756905;28;20199;-81
2021/12/31 12:15:29;;;;;;;1.67;1.00;;;;;;;;;;20770622;28;20258;-81
2021/12/31 12:25:34;;;;;;;1.77;0.87;;;;;;;;;;20756972;28;20219;-80
2021/12/31 12:35:38;;;;;;;0.80;0.50;;;;;;;;;;20771358;28;20211;-80
2021/12/31 12:45:46;;;;;;;1.47;0.80;;;12.10;99.90;;;;;;20758487;28;20231;-81
2021/12/31 12:55:48;;;;;;;1.07;0.40;;;;;;;;;;20738106;28;20219;-82
2021/12/31 13:06:02;;;;;;;1.00;0.60;;;;;;;;;;20781285;28;20223;-81
2021/12/31 13:16:04;;;;;;;1.07;0.70;;;;;;;;;;20736548;28;20206;-82
2021/12/31 13:26:17;;;;;;;0.67;0.50;;;;;;;;;;20751256;28;20230;-82
2021/12/31 13:36:27;;;;;;;0.87;0.57;;;12.10;99.90;;;;;;20749320;28;20226;-81
2021/12/31 13:46:32;;;;;;;1.40;0.67;;;;;;;;;;20749845;28;20254;-81
2021/12/31 13:56:39;;;;;;;0.77;0.67;;;12.60;99.90;;;;;;20748456;28;20664;-81
2021/12/31 14:06:42;;;;;;;2.03;1.20;;;;;;;;;;20765203;28;20568;-80
2021/12/31 14:16:44;;;;;;;2.07;1.00;;;;;;;;;;20778722;28;20385;-80
2021/12/31 14:26:46;;;;;;;1.00;0.73;;;;;;;;;;20766443;28;20231;-80
2021/12/31 14:36:52;;;;;;;1.93;0.77;;;;;;;;;;20747143;28;20261;-81
2021/12/31 14:46:54;;;;;;;0.93;0.70;;;;;;;;;;20783794;28;20239;-80
2021/12/31 14:56:57;;;;;;;0.43;0.33;;;;;;;;;;20762814;28;20754;-80
2021/12/31 15:07:00;;;;;;;0.50;0.50;;;;;;;;;;20775932;28;20257;-81
2021/12/31 15:17:02;;;;;;;0.43;0.40;;;;;;;;;;20744005;28;20281;-81
2021/12/31 15:27:04;;;;;;;1.37;0.70;;;;;;;;;;20758888;28;20585;-82
2021/12/31 15:37:06;;;;;;;0.40;0.33;;;;;;;;;;20775649;28;20219;-82
2021/12/31 15:47:08;;;;;;;1.03;0.60;;;11.40;99.90;;;;;;20801798;28;20231;-80
2021/12/31 15:57:10;;;;;;;0.57;0.50;;;;;;;;;;20739892;28;20254;-80
2021/12/31 16:07:12;;;;;;;3.77;0.67;;;;;;;;;;20755941;28;20222;-79
2021/12/31 16:17:13;;;;;;;0.97;0.53;;;;;;;;;;20755352;28;20238;-80
2021/12/31 16:27:15;;;;;;;0.97;0.60;;;;;;;;;;20754096;28;20305;-80
2021/12/31 16:37:17;;;;;;;4.97;3.00;;;;;;;;;;20752622;28;20253;-80
2021/12/31 16:47:19;;;;;;;1.83;1.20;;;;;;;;;;20776441;28;20254;-80
2021/12/31 16:57:20;;;;;;;0.97;0.73;;;;;;;;;;20734896;28;20583;-81
2021/12/31 17:07:23;;;;;;;1.23;0.70;;;;;;;;;;20714884;28;20250;-81
2021/12/31 17:17:24;;;;;;;0.93;0.80;;;;;;;;;;20710579;28;20630;-81
2021/12/31 17:27:26;;;;;;;1.10;0.63;;;;;;;;;;20770313;28;20261;-81
2021/12/31 17:37:28;;;;;;;1.37;0.77;;;11.10;99.90;;;;;;20701580;28;20273;-79
2021/12/31 17:47:30;;;;;;;1.27;0.73;;;;;;;;;;20699696;28;20293;-81
2021/12/31 17:57:32;;;;;;;3.20;0.80;;;;;;;;;;20713089;28;20223;-80
2021/12/31 18:07:34;;;;;;;0.90;0.60;;;;;;;;;;20704951;28;20286;-82
2021/12/31 18:17:35;;;;;;;1.30;0.80;;;;;;;;;;20649579;28;20744;-80
2021/12/31 18:27:37;;;;;;;1.17;0.93;;;;;;;;;;20712978;28;20262;-80
2021/12/31 18:37:39;;;;;;;1.53;1.00;;;;;;;;;;20694456;28;20708;-80
2021/12/31 18:47:51;;;;;;;1.50;0.97;;;;;;;;;;20745806;28;20235;-80
2021/12/31 18:57:53;;;;;;;1.57;1.13;;;;;;;;;;20765973;28;20619;-80
2021/12/31 19:07:57;;;;;;;1.40;1.10;;;;;;;;;;20781698;28;20281;-80
2021/12/31 19:17:59;;;;;;;1.50;1.07;;;;;;;;;;20776540;28;20281;-80
2021/12/31 19:28:01;;;;;;;1.30;0.60;;;;;;;;;;20777356;28;20231;-80
2021/12/31 19:38:03;;;;;;;1.10;0.60;;;;;;;;;;20762001;28;20235;-81
2021/12/31 19:48:08;;;;;;;0.97;0.80;;;;;;;;;;20804359;28;20239;-80
2021/12/31 19:58:10;;;;;;;3.20;1.27;;;;;;;;;;20799743;28;20762;-81
2021/12/31 20:08:13;;;;;;;1.63;0.93;;;;;;;;;;20784774;28;20223;-82
2021/12/31 20:18:17;;;;;;;2.57;1.43;;;;;;;;;;20787970;28;20220;-80
2021/12/31 20:28:19;;;;;;;5.90;3.60;;;;;;;;;;20776389;28;20211;-80
2021/12/31 20:38:21;;;;;;;4.10;1.90;;;;;;;;;;20783656;28;20231;-80
2021/12/31 20:48:23;;;;;;;1.97;1.23;;;;;;;;;;20784741;28;20235;-80
2021/12/31 20:58:25;;;;;;;2.60;1.40;;;;;;;;;;20756254;28;20685;-80
2021/12/31 21:08:27;;;;;;;1.47;1.00;;;;;;;;;;20718348;28;20255;-80
2021/12/31 21:18:28;;;;;;;1.30;1.00;;;;;;;;;;20747363;28;20223;-80
2021/12/31 21:28:31;;;;;;;1.13;0.77;;;;;;;;;;20760783;28;20239;-81
2021/12/31 21:38:33;;;;;;;1.67;0.90;;;;;;;;;;20761121;28;20231;-81
2021/12/31 21:48:36;;;;;;;1.33;0.80;;;;;;;;;;20744362;28;20227;-81
2021/12/31 21:58:38;;;;;;;0.80;0.77;;;;;;;;;;20760555;28;20227;-81
2021/12/31 22:08:40;;;;;;;3.13;1.07;;;;;;;;;;20775279;28;20226;-81
2021/12/31 22:18:42;;;;;;;1.10;0.87;;;;;;;;;;20758234;28;20215;-81
2021/12/31 22:28:47;;;;;;;1.00;0.90;;;;;;;;;;20727981;28;20684;-81
2021/12/31 22:38:49;;;;;;;2.10;1.20;;;;;;;;;;20771094;28;20227;-81
2021/12/31 22:48:51;;;;;;;2.10;1.47;;;;;;;;;;20758389;28;20231;-81
2021/12/31 22:58:53;;;;;;;2.63;1.30;;;;;;;;;;20732323;28;20285;-81
2021/12/31 23:08:55;;;;;;;2.33;1.57;;;;;;;;;;20744634;28;20223;-81
2021/12/31 23:18:56;;;;;;;2.03;1.20;;;;;;;;;;20760209;28;20203;-81
2021/12/31 23:28:58;;;;;;;5.77;4.33;;;;;;;;;;20760217;28;20249;-80
2021/12/31 23:39:04;;;;;;;14.00;5.47;;;;;;;;;;20775452;28;20235;-80
2021/12/31 23:49:06;;;;;;;5.93;4.27;;;;;;;;;;20795276;28;20243;-80
2021/12/31 23:59:08;;;;;;;5.33;3.57;;;;;;;;;;20769493;28;20219;-80
